createdAt,value
2018-06-05T00:01:55.528Z,40.23
2018-06-05T00:04:23.836Z,40.53
2018-06-05T00:06:52.159Z,39.67
2018-06-05T00:09:20.491Z,38.70
2018-06-05T00:11:48.849Z,37.27
2018-06-05T00:14:17.200Z,38.50
2018-06-05T00:16:45.573Z,39.00
2018-06-05T00:19:13.896Z,38.53
2018-06-05T00:21:42.232Z,38.87
2018-06-05T00:24:10.528Z,36.43
2018-06-05T00:26:38.868Z,32.97
2018-06-05T00:29:07.223Z,34.30
2018-06-05T00:31:35.547Z,30.27
2018-06-05T00:34:03.864Z,31.80
2018-06-05T00:36:32.167Z,33.07
2018-06-05T00:39:00.485Z,29.80
2018-06-05T00:41:28.798Z,30.43
2018-06-05T00:43:57.080Z,26.43
2018-06-05T00:46:25.416Z,26.67
2018-06-05T00:48:53.727Z,29.03
2018-06-05T00:51:33.382Z,32.07
2018-06-05T00:54:01.724Z,21.00
2018-06-05T00:56:30.136Z,24.47
2018-06-05T00:58:58.470Z,28.57
2018-06-05T01:01:26.795Z,23.63
2018-06-05T01:03:55.139Z,21.10
2018-06-05T01:06:23.462Z,23.83
2018-06-05T01:08:51.779Z,26.73
2018-06-05T01:11:20.980Z,22.63
2018-06-05T01:13:49.279Z,23.80
2018-06-05T01:16:17.579Z,19.67
2018-06-05T01:18:45.907Z,23.17
2018-06-05T01:21:14.223Z,22.77
2018-06-05T01:23:42.540Z,21.03
2018-06-05T01:26:10.891Z,20.67
2018-06-05T01:28:39.255Z,21.47
2018-06-05T01:31:07.721Z,21.30
2018-06-05T01:33:36.056Z,24.73
2018-06-05T01:36:04.143Z,28.33
2018-06-05T01:38:32.488Z,24.13
2018-06-05T01:41:00.819Z,20.90
2018-06-05T01:43:29.178Z,25.43
2018-06-05T01:45:57.491Z,23.40
2018-06-05T01:48:25.791Z,20.47
2018-06-05T01:50:54.132Z,24.13
2018-06-05T01:53:22.469Z,19.70
2018-06-05T01:55:50.514Z,22.50
2018-06-05T01:58:18.859Z,21.23
2018-06-05T02:00:47.175Z,20.43
2018-06-05T02:03:15.524Z,21.33
2018-06-05T02:05:43.836Z,24.50
2018-06-05T02:08:12.120Z,21.17
2018-06-05T02:10:40.480Z,25.47
2018-06-05T02:13:08.760Z,22.40
2018-06-05T02:15:37.128Z,21.93
2018-06-05T02:18:05.482Z,25.23
2018-06-05T02:20:33.801Z,18.17
2018-06-05T02:23:02.183Z,26.50
2018-06-05T02:25:30.468Z,21.10
2018-06-05T02:27:58.822Z,20.00
2018-06-05T02:30:27.120Z,19.23
2018-06-05T02:32:55.439Z,19.53
2018-06-05T02:35:23.816Z,23.80
2018-06-05T02:37:52.221Z,22.37
2018-06-05T02:40:20.507Z,21.20
2018-06-05T02:42:49.834Z,20.70
2018-06-05T02:45:18.160Z,18.90
2018-06-05T02:47:46.556Z,20.90
2018-06-05T02:50:14.908Z,19.80
2018-06-05T02:52:43.209Z,21.23
2018-06-05T02:55:11.660Z,19.00
2018-06-05T02:57:39.972Z,18.93
2018-06-05T03:00:08.412Z,15.33
2018-06-05T03:02:36.725Z,21.10
2018-06-05T03:05:05.048Z,19.60
2018-06-05T03:07:33.409Z,19.27
2018-06-05T03:10:01.708Z,18.83
2018-06-05T03:12:30.048Z,18.90
2018-06-05T03:14:58.691Z,16.63
2018-06-05T03:17:26.976Z,21.80
2018-06-05T03:19:55.312Z,19.20
2018-06-05T03:22:23.608Z,18.93
2018-06-05T03:24:51.987Z,16.50
2018-06-05T03:27:20.294Z,19.07
2018-06-05T03:29:48.608Z,19.03
2018-06-05T03:32:16.899Z,19.90
2018-06-05T03:34:45.216Z,15.83
2018-06-05T03:37:13.625Z,18.43
2018-06-05T03:39:41.975Z,21.67
2018-06-05T03:42:10.303Z,19.93
2018-06-05T03:44:38.631Z,17.47
2018-06-05T03:47:06.927Z,15.63
2018-06-05T03:49:41.427Z,19.07
2018-06-05T03:52:10.216Z,21.37
2018-06-05T03:54:38.595Z,21.07
2018-06-05T03:57:06.963Z,20.50
2018-06-05T03:59:35.276Z,21.87
2018-06-05T04:02:03.632Z,20.47
2018-06-05T04:04:31.963Z,20.63
2018-06-05T04:07:01.085Z,17.80
2018-06-05T04:09:29.380Z,20.07
2018-06-05T04:11:57.680Z,18.63
2018-06-05T04:14:26.016Z,16.87
2018-06-05T04:16:55.179Z,19.17
2018-06-05T04:19:23.523Z,19.33
2018-06-05T04:21:51.854Z,15.03
2018-06-05T04:24:20.183Z,23.67
2018-06-05T04:26:49.534Z,18.03
2018-06-05T04:29:17.843Z,20.07
2018-06-05T04:31:46.166Z,14.93
2018-06-05T04:34:14.454Z,21.03
2018-06-05T04:36:42.886Z,18.23
2018-06-05T04:39:11.201Z,24.23
2018-06-05T04:41:39.311Z,16.43
2018-06-05T04:44:07.647Z,14.90
2018-06-05T04:46:35.956Z,35.47
2018-06-05T04:49:04.481Z,18.23
2018-06-05T04:51:32.784Z,18.83
2018-06-05T04:54:01.117Z,17.20
2018-06-05T04:56:29.440Z,17.30
2018-06-05T04:58:57.779Z,18.33
2018-06-05T05:01:26.108Z,19.13
2018-06-05T05:03:54.459Z,12.27
2018-06-05T05:06:23.456Z,14.67
2018-06-05T05:08:51.873Z,13.47
2018-06-05T05:11:20.156Z,14.43
2018-06-05T05:13:48.484Z,12.80
2018-06-05T05:16:16.824Z,13.00
2018-06-05T05:18:45.119Z,14.07
2018-06-05T05:21:13.468Z,15.70
2018-06-05T05:23:41.788Z,20.17
2018-06-05T05:26:10.088Z,16.27
2018-06-05T05:28:38.396Z,16.30
2018-06-05T05:31:06.710Z,14.17
2018-06-05T05:33:35.040Z,9.63
2018-06-05T05:36:03.388Z,14.90
2018-06-05T05:38:31.711Z,12.17
2018-06-05T05:41:00.096Z,13.40
2018-06-05T05:43:28.511Z,16.53
2018-06-05T05:45:56.892Z,17.10
2018-06-05T05:48:25.232Z,15.50
2018-06-05T05:50:53.574Z,14.77
2018-06-05T05:53:21.916Z,16.37
2018-06-05T05:55:50.265Z,15.87
2018-06-05T05:58:18.632Z,16.47
2018-06-05T06:00:46.973Z,16.97
2018-06-05T06:03:15.324Z,12.30
2018-06-05T06:05:43.659Z,11.87
2018-06-05T06:08:12.020Z,12.10
2018-06-05T06:10:40.332Z,12.77
2018-06-05T06:13:08.638Z,18.30
2018-06-05T06:15:36.928Z,17.07
2018-06-05T06:18:05.320Z,12.27
2018-06-05T06:20:33.884Z,14.53
2018-06-05T06:23:02.251Z,16.47
2018-06-05T06:25:31.278Z,21.63
2018-06-05T06:27:59.800Z,17.13
2018-06-05T06:30:28.079Z,14.80
2018-06-05T06:32:56.395Z,16.87
2018-06-05T06:35:24.713Z,13.77
2018-06-05T06:37:53.500Z,15.03
2018-06-05T06:40:21.896Z,11.97
2018-06-05T06:42:50.335Z,15.80
2018-06-05T06:45:18.640Z,12.47
2018-06-05T06:47:47.192Z,14.97
2018-06-05T06:50:15.645Z,19.27
2018-06-05T06:52:48.253Z,16.10
2018-06-05T06:55:18.775Z,16.77
2018-06-05T06:57:47.113Z,11.67
2018-06-05T07:00:15.485Z,16.77
2018-06-05T07:02:44.005Z,31.77
2018-06-05T07:05:12.430Z,101.93
2018-06-05T07:07:40.769Z,15.00
2018-06-05T07:10:09.245Z,15.77
2018-06-05T07:12:37.585Z,17.67
2018-06-05T07:15:05.916Z,16.80
2018-06-05T07:17:34.220Z,12.60
2018-06-05T07:20:02.547Z,16.73
2018-06-05T07:22:30.900Z,19.50
2018-06-05T07:24:59.220Z,18.47
2018-06-05T07:27:27.549Z,12.93
2018-06-05T07:29:55.856Z,12.10
2018-06-05T07:32:24.209Z,16.67
2018-06-05T07:34:52.567Z,14.07
2018-06-05T07:37:20.904Z,16.83
2018-06-05T07:39:49.298Z,12.27
2018-06-05T07:42:17.604Z,15.43
2018-06-05T07:44:45.910Z,14.07
2018-06-05T07:47:14.483Z,16.70
2018-06-05T07:49:42.788Z,14.20
2018-06-05T07:52:11.150Z,17.07
2018-06-05T07:54:40.274Z,16.80
2018-06-05T07:57:08.676Z,14.93
2018-06-05T07:59:39.552Z,12.87
2018-06-05T08:02:07.960Z,13.37
2018-06-05T08:04:36.288Z,14.13
2018-06-05T08:07:04.640Z,16.10
2018-06-05T08:09:33.007Z,15.60
2018-06-05T08:12:01.383Z,20.77
2018-06-05T08:14:29.847Z,12.87
2018-06-05T08:16:58.235Z,12.97
2018-06-05T08:19:26.792Z,15.40
2018-06-05T08:21:55.096Z,11.23
2018-06-05T08:24:23.571Z,18.70
2018-06-05T08:26:53.767Z,10.63
2018-06-05T08:29:22.388Z,14.60
2018-06-05T08:31:50.770Z,17.10
2018-06-05T08:34:19.327Z,15.10
2018-06-05T08:36:47.648Z,12.30
2018-06-05T08:39:16.042Z,12.10
2018-06-05T08:41:44.376Z,12.73
2018-06-05T08:44:13.196Z,10.90
2018-06-05T08:46:42.229Z,13.47
2018-06-05T08:49:10.365Z,13.40
2018-06-05T08:51:38.764Z,13.77
2018-06-05T08:54:07.173Z,11.43
2018-06-05T08:56:35.654Z,13.23
2018-06-05T08:59:04.541Z,14.10
2018-06-05T09:01:33.034Z,11.87
2018-06-05T09:04:01.533Z,13.37
2018-06-05T09:06:29.946Z,10.33
2018-06-05T09:09:03.863Z,10.40
2018-06-05T09:11:36.100Z,15.88
2018-06-05T09:14:05.613Z,15.93
2018-06-05T09:16:34.109Z,12.90
2018-06-05T09:19:02.419Z,10.70
2018-06-05T09:21:30.873Z,11.40
2018-06-05T09:23:59.205Z,12.80
2018-06-05T09:26:27.608Z,10.32
2018-06-05T09:28:55.961Z,11.83
2018-06-05T09:31:24.298Z,11.80
2018-06-05T09:33:52.688Z,13.15
2018-06-05T09:36:20.973Z,12.25
2018-06-05T09:38:49.400Z,13.68
2018-06-05T09:41:18.222Z,10.50
2018-06-05T09:43:46.627Z,12.00
2018-06-05T09:46:17.384Z,8.93
2018-06-05T09:48:53.088Z,9.73
2018-06-05T09:51:21.808Z,10.28
2018-06-05T09:53:50.181Z,14.03
2018-06-05T09:56:21.843Z,12.75
2018-06-05T09:58:50.461Z,13.93
2018-06-05T10:01:18.818Z,13.13
2018-06-05T10:03:47.835Z,12.00
2018-06-05T10:06:16.165Z,16.63
2018-06-05T10:08:44.601Z,23.50
2018-06-05T10:11:12.928Z,11.13
2018-06-05T10:13:47.280Z,10.20
2018-06-05T10:18:58.566Z,9.63
2018-06-05T10:21:26.872Z,12.70
2018-06-05T10:23:55.544Z,11.57
2018-06-05T10:26:24.096Z,14.87
2018-06-05T10:28:52.449Z,12.70
2018-06-05T10:31:20.751Z,9.87
2018-06-05T10:33:49.104Z,13.23
2018-06-05T10:36:17.436Z,11.13
2018-06-05T10:38:45.747Z,13.10
2018-06-05T10:41:14.082Z,10.83
2018-06-05T10:43:42.536Z,13.27
2018-06-05T10:46:10.900Z,8.20
2018-06-05T10:48:39.325Z,13.50
2018-06-05T10:51:08.254Z,9.73
2018-06-05T10:53:37.533Z,10.77
2018-06-05T10:56:06.041Z,11.40
2018-06-05T10:58:36.318Z,9.73
2018-06-05T11:01:04.659Z,12.63
2018-06-05T11:03:33.357Z,10.60
2018-06-05T11:06:02.867Z,9.83
2018-06-05T11:08:31.217Z,10.53
2018-06-05T11:10:59.567Z,7.77
2018-06-05T11:13:27.998Z,10.68
2018-06-05T11:15:58.806Z,7.35
2018-06-05T11:18:27.371Z,6.83
2018-06-05T11:20:56.642Z,7.55
2018-06-05T11:23:25.401Z,8.85
2018-06-05T11:25:53.768Z,7.60
2018-06-05T11:28:22.114Z,7.50
2018-06-05T11:30:50.775Z,7.00
2018-06-05T11:33:19.221Z,7.62
2018-06-05T11:35:48.504Z,8.13
2018-06-05T11:38:16.840Z,6.58
2018-06-05T11:40:45.152Z,6.05
2018-06-05T11:43:13.516Z,9.98
2018-06-05T11:45:41.915Z,13.93
2018-06-05T11:48:10.299Z,12.82
2018-06-05T11:50:38.640Z,8.40
2018-06-05T11:53:06.986Z,9.55
2018-06-05T11:55:35.290Z,7.47
2018-06-05T11:58:03.608Z,8.75
2018-06-05T12:00:31.915Z,8.30
2018-06-05T12:03:00.220Z,8.10
2018-06-05T12:05:28.527Z,6.97
2018-06-05T12:07:56.803Z,14.73
2018-06-05T12:10:25.144Z,14.40
2018-06-05T12:12:53.417Z,7.15
2018-06-05T12:15:21.771Z,5.70
2018-06-05T12:17:50.084Z,12.03
2018-06-05T12:20:18.384Z,8.20
2018-06-05T12:22:46.687Z,7.25
2018-06-05T12:25:14.972Z,6.03
2018-06-05T12:27:43.328Z,6.20
2018-06-05T12:30:11.620Z,7.75
2018-06-05T12:32:39.973Z,7.83
2018-06-05T12:35:08.256Z,7.35
2018-06-05T12:37:36.656Z,9.18
2018-06-05T12:40:04.743Z,9.20
2018-06-05T12:42:33.193Z,11.75
2018-06-05T12:45:02.116Z,7.85
2018-06-05T12:47:30.520Z,8.43
2018-06-05T12:49:58.852Z,6.40
2018-06-05T12:52:27.204Z,7.58
2018-06-05T12:54:56.575Z,11.45
2018-06-05T12:57:24.921Z,7.42
2018-06-05T12:59:53.453Z,6.90
2018-06-05T13:02:21.916Z,6.67
2018-06-05T13:04:52.110Z,7.70
2018-06-05T13:07:20.491Z,7.92
2018-06-05T13:09:48.819Z,10.25
2018-06-05T13:12:17.139Z,8.68
2018-06-05T13:14:45.434Z,9.28
2018-06-05T13:17:13.764Z,10.48
2018-06-05T13:19:42.109Z,9.20
2018-06-05T13:22:10.400Z,8.68
2018-06-05T13:24:38.731Z,10.05
2018-06-05T13:27:08.068Z,5.55
2018-06-05T13:29:36.420Z,9.50
2018-06-05T13:32:04.740Z,12.60
2018-06-05T13:34:33.068Z,11.50
2018-06-05T13:37:01.421Z,9.70
2018-06-05T13:39:29.785Z,10.75
2018-06-05T13:41:58.140Z,8.75
2018-06-05T13:44:26.459Z,10.23
2018-06-05T13:46:55.227Z,10.28
2018-06-05T13:49:23.528Z,10.70
2018-06-05T13:51:51.856Z,7.83
2018-06-05T13:54:20.748Z,6.97
2018-06-05T13:56:49.097Z,8.25
2018-06-05T13:59:17.404Z,12.03
2018-06-05T14:01:45.740Z,9.00
2018-06-05T14:04:13.763Z,8.45
2018-06-05T14:06:42.189Z,8.93
2018-06-05T14:09:10.869Z,7.47
2018-06-05T14:11:39.204Z,8.48
2018-06-05T14:14:07.541Z,7.22
2018-06-05T14:16:35.904Z,12.55
2018-06-05T14:19:04.232Z,9.63
2018-06-05T14:21:32.594Z,14.60
2018-06-05T14:24:00.940Z,10.58
2018-06-05T14:26:29.294Z,9.08
2018-06-05T14:28:57.669Z,9.40
2018-06-05T14:31:25.964Z,12.68
2018-06-05T14:33:54.932Z,10.93
2018-06-05T14:36:23.251Z,10.03
2018-06-05T14:38:51.687Z,10.98
2018-06-05T14:41:20.013Z,12.03
2018-06-05T14:43:48.292Z,9.20
2018-06-05T14:46:16.664Z,10.68
2018-06-05T14:48:45.045Z,9.58
2018-06-05T14:51:13.416Z,9.05
2018-06-05T14:53:41.449Z,9.03
2018-06-05T14:56:09.799Z,7.30
2018-06-05T14:58:38.192Z,11.55
2018-06-05T15:01:06.602Z,11.03
2018-06-05T15:03:34.926Z,10.10
2018-06-05T15:06:03.295Z,10.82
2018-06-05T15:08:31.648Z,7.12
2018-06-05T15:10:59.984Z,13.58
2018-06-05T15:13:28.292Z,11.08
2018-06-05T15:15:56.620Z,9.38
2018-06-05T15:18:24.920Z,10.68
2018-06-05T15:20:53.279Z,9.33
2018-06-05T15:23:21.700Z,12.60
2018-06-05T15:25:50.032Z,11.28
2018-06-05T15:28:18.407Z,10.58
2018-06-05T15:30:46.694Z,15.18
2018-06-05T15:33:15.020Z,13.72
2018-06-05T15:35:43.438Z,10.55
2018-06-05T15:38:11.905Z,12.43
2018-06-05T15:40:40.305Z,12.10
2018-06-05T15:43:08.607Z,11.80
2018-06-05T15:45:37.036Z,8.23
2018-06-05T15:48:05.596Z,16.93
2018-06-05T15:50:34.780Z,12.40
2018-06-05T15:53:03.096Z,9.40
2018-06-05T15:55:31.644Z,9.17
2018-06-05T15:57:59.760Z,11.90
2018-06-05T16:00:28.071Z,10.57
2018-06-05T16:02:56.459Z,9.93
2018-06-05T16:05:24.783Z,9.77
2018-06-05T16:07:52.844Z,13.23
2018-06-05T16:10:21.192Z,9.50
2018-06-05T16:12:49.671Z,10.57
2018-06-05T16:15:17.998Z,12.90
2018-06-05T16:17:46.576Z,12.87
2018-06-05T16:20:15.059Z,13.87
2018-06-05T16:22:43.388Z,10.87
2018-06-05T16:25:11.700Z,11.03
2018-06-05T16:27:40.093Z,11.67
2018-06-05T16:30:08.423Z,9.47
2018-06-05T16:32:36.774Z,11.60
2018-06-05T16:35:05.156Z,10.80
2018-06-05T16:37:33.461Z,17.93
2018-06-05T16:40:02.019Z,13.63
2018-06-05T16:42:30.400Z,10.37
2018-06-05T16:44:58.720Z,15.27
2018-06-05T16:47:27.041Z,13.23
2018-06-05T16:49:55.405Z,12.43
2018-06-05T16:52:23.708Z,12.43
2018-06-05T16:54:52.065Z,14.60
2018-06-05T16:57:20.388Z,17.47
2018-06-05T16:59:48.718Z,20.63
2018-06-05T17:02:17.065Z,8.57
2018-06-05T17:04:45.396Z,13.17
2018-06-05T17:07:13.720Z,13.30
2018-06-05T17:09:42.025Z,11.13
2018-06-05T17:12:10.376Z,25.60
2018-06-05T17:14:38.688Z,17.70
2018-06-05T17:17:07.085Z,17.03
2018-06-05T17:19:35.401Z,18.67
2018-06-05T17:22:03.729Z,17.00
2018-06-05T17:24:32.056Z,17.40
2018-06-05T17:27:00.392Z,14.77
2018-06-05T17:29:28.666Z,13.27
2018-06-05T17:31:56.985Z,12.27
2018-06-05T17:34:24.998Z,13.37
2018-06-05T17:36:53.377Z,12.20
2018-06-05T17:39:21.677Z,12.10
2018-06-05T17:41:49.983Z,9.37
2018-06-05T17:44:18.328Z,12.93
2018-06-05T17:46:46.751Z,13.97
2018-06-05T17:49:15.130Z,11.27
2018-06-05T17:51:43.441Z,13.97
2018-06-05T17:54:11.503Z,14.17
2018-06-05T17:56:39.893Z,14.23
2018-06-05T17:59:08.232Z,16.17
2018-06-05T18:01:36.552Z,11.77
2018-06-05T18:04:04.612Z,16.77
2018-06-05T18:06:32.971Z,13.70
2018-06-05T18:09:01.289Z,10.63
2018-06-05T18:11:29.617Z,17.90
2018-06-05T18:13:58.155Z,12.97
2018-06-05T18:16:26.522Z,10.90
2018-06-05T18:18:54.874Z,14.93
2018-06-05T18:21:23.186Z,14.00
2018-06-05T18:23:51.556Z,9.53
2018-06-05T18:26:19.851Z,13.20
2018-06-05T18:28:48.363Z,15.10
2018-06-05T18:31:16.672Z,8.43
2018-06-05T18:33:44.972Z,15.00
2018-06-05T18:36:13.269Z,19.80
2018-06-05T18:38:42.302Z,13.47
2018-06-05T18:41:10.626Z,12.53
2018-06-05T18:43:38.989Z,14.13
2018-06-05T18:46:07.295Z,16.60
2018-06-05T18:48:35.815Z,12.30
2018-06-05T18:51:06.508Z,14.47
2018-06-05T18:53:34.889Z,13.70
2018-06-05T18:56:03.251Z,13.73
2018-06-05T18:58:31.589Z,18.17
2018-06-05T19:00:59.695Z,14.20
2018-06-05T19:03:27.760Z,14.70
2018-06-05T19:05:56.113Z,18.03
2018-06-05T19:08:24.421Z,16.80
2018-06-05T19:10:52.831Z,16.83
2018-06-05T19:13:21.200Z,14.47
2018-06-05T19:15:49.524Z,17.57
2018-06-05T19:18:17.899Z,20.47
2018-06-05T19:20:46.268Z,19.70
2018-06-05T19:23:14.597Z,17.17
2018-06-05T19:25:42.927Z,17.80
2018-06-05T19:28:11.303Z,17.83
2018-06-05T19:30:39.653Z,17.80
2018-06-05T19:33:08.000Z,17.73
2018-06-05T19:35:36.361Z,18.40
2018-06-05T19:38:04.684Z,18.60
2018-06-05T19:40:33.079Z,14.50
2018-06-05T19:43:01.474Z,15.30
2018-06-05T19:45:29.792Z,15.93
2018-06-05T19:47:58.156Z,16.93
2018-06-05T19:50:26.760Z,16.23
2018-06-05T19:52:54.944Z,17.93
2018-06-05T19:55:23.233Z,15.13
2018-06-05T19:57:51.645Z,15.03
2018-06-05T20:00:19.981Z,15.27
2018-06-05T20:02:48.335Z,14.03
2018-06-05T20:05:16.757Z,16.20
2018-06-05T20:07:45.118Z,16.37
2018-06-05T20:10:13.429Z,16.50
2018-06-05T20:12:41.743Z,21.70
2018-06-05T20:15:10.140Z,14.00
2018-06-05T20:17:38.449Z,16.07
2018-06-05T20:20:07.900Z,14.27
2018-06-05T20:22:36.330Z,14.77
2018-06-05T20:25:04.761Z,14.17
2018-06-05T20:27:33.190Z,14.47
2018-06-05T20:30:01.521Z,10.37
2018-06-05T20:32:29.853Z,15.40
2018-06-05T20:34:58.180Z,11.37
2018-06-05T20:37:26.549Z,10.73
2018-06-05T20:39:54.953Z,9.57
2018-06-05T20:42:23.305Z,10.37
2018-06-05T20:44:51.716Z,11.07
2018-06-05T20:47:20.176Z,10.20
2018-06-05T20:49:48.517Z,10.07
2018-06-05T20:52:17.412Z,9.93
2018-06-05T20:54:45.717Z,7.67
2018-06-05T20:57:14.107Z,8.93
2018-06-05T20:59:42.400Z,7.43
2018-06-05T21:02:10.723Z,8.93
2018-06-05T21:04:39.059Z,7.60
2018-06-05T21:07:07.104Z,9.13
2018-06-05T21:09:35.416Z,6.83
2018-06-05T21:12:03.753Z,5.60
2018-06-05T21:14:32.131Z,5.63
2018-06-05T21:17:01.226Z,6.00
2018-06-05T21:19:29.557Z,5.23
2018-06-05T21:21:57.857Z,4.87
2018-06-05T21:24:26.784Z,5.40
2018-06-05T21:26:55.152Z,6.33
2018-06-05T21:29:23.444Z,5.00
2018-06-05T21:31:51.783Z,8.37
2018-06-05T21:34:20.122Z,6.53
2018-06-05T21:36:48.533Z,4.97
2018-06-05T21:39:16.876Z,3.57
2018-06-05T21:41:45.208Z,6.40
2018-06-05T21:44:13.576Z,4.93
2018-06-05T21:46:41.868Z,5.60
2018-06-05T21:49:10.200Z,4.87
2018-06-05T21:51:38.520Z,3.97
2018-06-05T21:54:07.324Z,3.97
2018-06-05T21:56:35.656Z,5.83
2018-06-05T21:59:04.104Z,3.67
2018-06-05T22:01:32.161Z,4.90
2018-06-05T22:04:00.532Z,5.73
2018-06-05T22:06:28.840Z,5.40
2018-06-05T22:08:57.158Z,3.63
2018-06-05T22:11:25.485Z,4.20
2018-06-05T22:13:53.840Z,5.37
2018-06-05T22:16:22.164Z,5.10
2018-06-05T22:18:50.503Z,7.80
2018-06-05T22:21:18.983Z,5.43
2018-06-05T22:23:47.264Z,4.57
2018-06-05T22:26:16.274Z,5.80
2018-06-05T22:28:44.560Z,5.13
2018-06-05T22:31:12.852Z,5.07
2018-06-05T22:33:41.179Z,3.73
2018-06-05T22:36:09.677Z,3.90
2018-06-05T22:38:38.193Z,3.87
2018-06-05T22:41:06.526Z,5.13
2018-06-05T22:43:34.883Z,3.30
2018-06-05T22:46:03.219Z,6.00
2018-06-05T22:48:31.534Z,6.20
2018-06-05T22:50:59.876Z,4.00
2018-06-05T22:53:28.156Z,7.57
2018-06-05T22:55:56.477Z,4.10
2018-06-05T22:58:25.249Z,4.37
2018-06-05T23:00:53.255Z,6.30
2018-06-05T23:03:21.676Z,4.93
2018-06-05T23:05:49.999Z,5.87
2018-06-05T23:08:18.313Z,3.90
2018-06-05T23:10:46.656Z,4.10
2018-06-05T23:13:14.834Z,5.23
2018-06-05T23:15:43.123Z,5.80
2018-06-05T23:18:11.430Z,5.67
2018-06-05T23:20:39.752Z,4.70
2018-06-05T23:23:08.102Z,4.60
2018-06-05T23:25:36.428Z,5.50
2018-06-05T23:28:04.785Z,6.93
2018-06-05T23:30:33.177Z,5.03
2018-06-05T23:33:01.284Z,6.20
2018-06-05T23:35:29.610Z,4.43
2018-06-05T23:37:57.888Z,5.70
2018-06-05T23:40:26.187Z,4.80
2018-06-05T23:42:54.489Z,6.07
2018-06-05T23:45:22.864Z,6.57
2018-06-05T23:47:51.174Z,4.03
2018-06-05T23:50:19.520Z,5.33
2018-06-05T23:52:48.032Z,7.43
2018-06-05T23:55:16.328Z,4.73
2018-06-05T23:57:44.772Z,7.70
